createdAt,value
2022-12-31T00:02:09.506Z,78.88
2022-12-31T00:04:58.553Z,78.80
2022-12-31T00:07:55.285Z,78.91
2022-12-31T00:10:46.758Z,79.13
2022-12-31T00:13:40.958Z,78.81
2022-12-31T00:16:41.408Z,79.32
2022-12-31T00:19:56.436Z,78.92
2022-12-31T00:22:50.687Z,78.73
2022-12-31T00:25:48.216Z,78.83
2022-12-31T00:28:36.801Z,78.97
2022-12-31T00:31:31.811Z,78.89
2022-12-31T00:34:18.625Z,79.08
2022-12-31T00:37:05.527Z,79.20
2022-12-31T00:40:00.324Z,78.91
2022-12-31T00:42:53.125Z,78.95
2022-12-31T00:45:42.985Z,79.16
2022-12-31T00:48:34.424Z,78.83
2022-12-31T00:51:23.551Z,78.92
2022-12-31T00:54:13.212Z,79.08
2022-12-31T00:57:03.190Z,79.03
2022-12-31T00:59:52.529Z,79.04
2022-12-31T01:03:02.093Z,79.04
2022-12-31T01:05:50.351Z,78.92
2022-12-31T01:08:37.662Z,78.95
2022-12-31T01:11:31.158Z,79.26
2022-12-31T01:14:19.535Z,79.39
2022-12-31T01:17:06.432Z,79.26
2022-12-31T01:19:53.523Z,79.13
2022-12-31T01:22:40.333Z,79.36
2022-12-31T01:25:27.174Z,79.01
2022-12-31T01:28:14.012Z,79.26
2022-12-31T01:31:12.055Z,79.14
2022-12-31T01:34:00.377Z,79.29
2022-12-31T01:36:47.279Z,79.06
2022-12-31T01:39:34.233Z,79.14
2022-12-31T01:42:22.551Z,79.22
2022-12-31T01:45:12.580Z,79.22
2022-12-31T01:47:59.733Z,79.25
2022-12-31T01:50:46.870Z,79.09
2022-12-31T01:53:40.721Z,79.35
2022-12-31T01:56:30.489Z,79.25
2022-12-31T01:59:18.613Z,78.98
2022-12-31T02:02:08.637Z,79.21
2022-12-31T02:04:57.596Z,78.95
2022-12-31T02:07:44.724Z,78.99
2022-12-31T02:10:37.779Z,78.89
2022-12-31T02:13:24.680Z,79.12
2022-12-31T02:16:28.590Z,78.84
2022-12-31T02:19:34.733Z,79.21
2022-12-31T02:22:39.966Z,79.30
2022-12-31T02:25:35.083Z,78.90
2022-12-31T02:28:50.081Z,79.27
2022-12-31T02:31:48.951Z,78.95
2022-12-31T02:34:41.135Z,78.94
2022-12-31T02:37:29.069Z,79.09
2022-12-31T02:40:19.408Z,79.14
2022-12-31T02:43:06.411Z,79.42
2022-12-31T02:46:27.269Z,79.25
2022-12-31T02:49:21.533Z,79.27
2022-12-31T02:52:31.567Z,79.20
2022-12-31T02:55:30.716Z,79.71
2022-12-31T02:58:52.243Z,79.09
2022-12-31T03:02:00.334Z,79.21
2022-12-31T03:04:55.499Z,79.31
2022-12-31T03:07:43.173Z,79.19
2022-12-31T03:10:29.986Z,79.17
2022-12-31T03:13:16.843Z,79.22
2022-12-31T03:16:06.795Z,78.96
2022-12-31T03:19:12.330Z,79.26
2022-12-31T03:22:17.737Z,78.98
2022-12-31T03:25:30.125Z,79.24
2022-12-31T03:28:18.783Z,79.43
2022-12-31T03:31:06.069Z,79.17
2022-12-31T03:33:53.559Z,78.82
2022-12-31T03:36:40.383Z,79.57
2022-12-31T03:39:29.323Z,79.25
2022-12-31T03:42:16.099Z,79.33
2022-12-31T03:45:03.334Z,79.26
2022-12-31T03:47:50.934Z,79.55
2022-12-31T03:50:37.813Z,79.26
2022-12-31T03:53:24.685Z,79.42
2022-12-31T03:56:11.545Z,79.74
2022-12-31T03:58:58.374Z,79.37
2022-12-31T04:01:50.865Z,79.73
2022-12-31T04:04:37.782Z,79.49
2022-12-31T04:07:24.639Z,79.51
2022-12-31T04:10:13.610Z,79.63
2022-12-31T04:13:02.449Z,79.68
2022-12-31T04:15:51.003Z,80.05
2022-12-31T04:18:37.913Z,79.55
2022-12-31T04:21:26.823Z,79.80
2022-12-31T04:24:15.644Z,79.95
2022-12-31T04:27:10.439Z,79.47
2022-12-31T04:29:57.318Z,79.59
2022-12-31T04:32:47.142Z,79.52
2022-12-31T04:35:34.035Z,79.62
2022-12-31T04:38:20.833Z,79.69
2022-12-31T04:41:22.885Z,79.68
2022-12-31T04:44:21.731Z,79.56
2022-12-31T04:47:16.291Z,79.69
2022-12-31T04:50:13.659Z,79.76
2022-12-31T04:53:00.513Z,79.87
2022-12-31T04:55:47.409Z,80.06
2022-12-31T04:58:34.471Z,80.04
2022-12-31T05:01:22.016Z,79.78
2022-12-31T05:04:14.663Z,79.83
2022-12-31T05:07:04.073Z,80.01
2022-12-31T05:09:51.029Z,79.82
2022-12-31T05:12:37.895Z,79.88
2022-12-31T05:15:29.407Z,80.05
2022-12-31T05:18:16.317Z,80.04
2022-12-31T05:21:03.543Z,79.84
2022-12-31T05:23:52.674Z,80.15
2022-12-31T05:26:39.477Z,79.95
2022-12-31T05:29:27.551Z,80.35
2022-12-31T05:32:17.339Z,80.16
2022-12-31T05:35:18.449Z,80.38
2022-12-31T05:38:05.441Z,80.42
2022-12-31T05:41:03.651Z,80.65
2022-12-31T05:43:50.505Z,80.43
2022-12-31T05:46:37.341Z,80.69
2022-12-31T05:49:24.182Z,80.88
2022-12-31T05:52:14.328Z,80.82
2022-12-31T05:55:01.182Z,80.88
2022-12-31T05:57:48.047Z,81.08
2022-12-31T06:00:36.018Z,81.36
2022-12-31T06:03:22.917Z,81.05
2022-12-31T06:06:19.758Z,80.96
2022-12-31T06:09:06.573Z,81.20
2022-12-31T06:11:53.479Z,81.09
2022-12-31T06:14:45.834Z,81.10
2022-12-31T06:17:32.888Z,81.17
2022-12-31T06:20:21.231Z,81.24
2022-12-31T06:23:10.407Z,81.30
2022-12-31T06:25:58.763Z,81.46
2022-12-31T06:28:45.604Z,81.41
2022-12-31T06:31:41.313Z,81.40
2022-12-31T06:34:28.126Z,81.49
2022-12-31T06:37:17.301Z,81.57
2022-12-31T06:40:06.661Z,81.44
2022-12-31T06:42:59.869Z,81.72
2022-12-31T06:45:47.073Z,81.68
2022-12-31T06:48:34.175Z,81.82
2022-12-31T06:51:21.692Z,81.55
2022-12-31T06:54:08.542Z,81.70
2022-12-31T06:56:55.513Z,82.02
2022-12-31T06:59:43.141Z,82.12
2022-12-31T07:02:41.630Z,82.20
2022-12-31T07:05:34.592Z,82.23
2022-12-31T07:08:47.097Z,82.17
2022-12-31T07:11:39.804Z,82.27
2022-12-31T07:14:50.028Z,82.40
2022-12-31T07:17:52.094Z,82.25
2022-12-31T07:20:46.333Z,82.19
2022-12-31T07:23:42.686Z,82.07
2022-12-31T07:26:42.936Z,82.39
2022-12-31T07:29:51.738Z,82.07
2022-12-31T07:32:57.496Z,82.29
2022-12-31T07:36:14.730Z,81.97
2022-12-31T07:39:18.514Z,81.64
2022-12-31T07:42:15.531Z,81.63
2022-12-31T07:45:20.926Z,81.74
2022-12-31T07:48:40.093Z,82.23
2022-12-31T07:51:32.057Z,81.91
2022-12-31T07:54:39.368Z,81.72
2022-12-31T07:57:34.632Z,82.39
2022-12-31T08:00:27.866Z,82.08
2022-12-31T08:03:52.453Z,82.03
2022-12-31T08:07:06.535Z,82.08
2022-12-31T08:10:19.435Z,82.08
2022-12-31T08:16:45.676Z,81.98
2022-12-31T08:19:57.468Z,82.04
2022-12-31T08:23:11.396Z,82.02
2022-12-31T08:26:31.700Z,82.01
2022-12-31T08:29:39.502Z,81.98
2022-12-31T08:33:08.182Z,82.06
2022-12-31T08:36:19.529Z,82.41
2022-12-31T08:39:16.372Z,82.07
2022-12-31T08:42:27.839Z,82.04
2022-12-31T08:45:41.963Z,82.39
2022-12-31T08:48:43.485Z,82.30
2022-12-31T08:51:33.949Z,82.39
2022-12-31T08:57:56.078Z,82.38
2022-12-31T09:00:52.382Z,82.71
2022-12-31T09:03:45.871Z,82.79
2022-12-31T09:06:43.326Z,82.57
2022-12-31T09:09:59.897Z,82.39
2022-12-31T09:13:01.689Z,82.45
2022-12-31T09:15:52.539Z,82.64
2022-12-31T09:19:02.993Z,82.50
2022-12-31T09:21:56.540Z,82.94
2022-12-31T09:28:57.549Z,82.62
2022-12-31T09:32:05.473Z,82.99
2022-12-31T09:35:22.319Z,83.01
2022-12-31T09:38:36.404Z,82.72
2022-12-31T09:41:58.473Z,82.85
2022-12-31T09:45:06.927Z,83.00
2022-12-31T09:48:08.938Z,83.19
2022-12-31T09:51:31.669Z,83.23
2022-12-31T09:54:30.617Z,83.08
2022-12-31T09:57:31.161Z,82.66
2022-12-31T10:00:31.546Z,83.39
2022-12-31T10:03:56.352Z,83.06
2022-12-31T10:07:06.886Z,82.96
2022-12-31T10:10:15.799Z,83.09
2022-12-31T10:13:55.355Z,82.76
2022-12-31T10:17:03.404Z,83.22
2022-12-31T10:20:26.724Z,83.01
2022-12-31T10:23:49.328Z,82.84
2022-12-31T10:27:01.087Z,82.87
2022-12-31T10:30:23.044Z,83.41
2022-12-31T10:33:33.082Z,82.73
2022-12-31T10:37:11.708Z,82.75
2022-12-31T10:40:23.158Z,82.79
2022-12-31T10:43:24.941Z,83.14
2022-12-31T10:46:39.470Z,83.40
2022-12-31T10:49:32.697Z,82.92
2022-12-31T10:52:29.842Z,82.72
2022-12-31T10:59:23.533Z,83.13
2022-12-31T11:03:29.706Z,83.03
2022-12-31T11:07:01.807Z,84.19
2022-12-31T11:10:36.721Z,83.42
2022-12-31T11:14:02.058Z,83.96
2022-12-31T11:16:53.784Z,83.79
2022-12-31T11:20:23.882Z,83.33
2022-12-31T11:24:26.348Z,83.72
2022-12-31T11:27:57.642Z,83.34
2022-12-31T11:31:36.478Z,83.78
2022-12-31T11:34:24.365Z,83.26
2022-12-31T11:37:41.536Z,83.90
2022-12-31T11:40:55.216Z,83.64
2022-12-31T11:44:29.879Z,83.91
2022-12-31T11:48:28.487Z,83.65
2022-12-31T11:52:11.002Z,83.87
2022-12-31T11:55:15.893Z,83.67
2022-12-31T11:58:31.225Z,83.86
2022-12-31T12:01:50.286Z,83.42
2022-12-31T12:04:37.101Z,83.33
2022-12-31T12:07:24.479Z,83.72
2022-12-31T12:10:59.459Z,84.26
2022-12-31T12:13:53.321Z,83.49
2022-12-31T12:16:44.511Z,83.95
2022-12-31T12:19:47.132Z,83.83
2022-12-31T12:22:49.528Z,83.85
2022-12-31T12:25:49.650Z,83.79
2022-12-31T12:28:49.417Z,83.81
2022-12-31T12:31:42.480Z,83.95
2022-12-31T12:34:45.910Z,83.88
2022-12-31T12:37:59.197Z,84.09
2022-12-31T12:41:10.793Z,83.69
2022-12-31T12:44:11.774Z,83.65
2022-12-31T12:47:01.930Z,83.64
2022-12-31T12:50:03.040Z,84.09
2022-12-31T12:52:59.156Z,84.88
2022-12-31T12:56:49.150Z,84.60
2022-12-31T13:03:29.081Z,84.31
2022-12-31T13:15:10.193Z,83.25
2022-12-31T13:22:13.901Z,82.66
2022-12-31T13:25:27.746Z,82.27
2022-12-31T13:28:41.786Z,82.14
2022-12-31T13:35:40.686Z,82.00
2022-12-31T13:42:13.568Z,81.51
2022-12-31T13:49:43.243Z,81.43
2022-12-31T13:57:10.975Z,81.18
2022-12-31T14:01:03.887Z,81.28
2022-12-31T14:04:37.960Z,81.07
2022-12-31T14:08:47.799Z,80.66
2022-12-31T14:26:35.561Z,80.27
2022-12-31T14:29:45.992Z,80.29
2022-12-31T14:33:27.278Z,80.37
2022-12-31T14:36:52.561Z,80.01
2022-12-31T14:44:28.042Z,80.04
2022-12-31T14:58:09.738Z,79.74
2022-12-31T15:01:44.814Z,79.87
2022-12-31T15:05:32.256Z,79.96
2022-12-31T15:13:17.080Z,79.76
2022-12-31T15:37:13.289Z,78.98
2022-12-31T15:41:11.187Z,79.06
2022-12-31T15:48:40.931Z,79.16
2022-12-31T15:52:11.348Z,78.96
2022-12-31T16:06:55.899Z,78.68
2022-12-31T16:10:04.334Z,78.67
2022-12-31T16:13:45.256Z,78.04
2022-12-31T16:20:02.951Z,78.47
2022-12-31T16:23:46.170Z,78.27
2022-12-31T16:26:50.572Z,78.19
2022-12-31T16:29:38.344Z,78.76
2022-12-31T16:32:47.049Z,78.13
2022-12-31T16:35:46.435Z,78.49
2022-12-31T16:38:36.979Z,78.21
2022-12-31T16:41:54.819Z,78.26
2022-12-31T16:44:49.499Z,78.39
2022-12-31T16:47:43.180Z,78.32
2022-12-31T16:53:42.579Z,78.24
2022-12-31T16:56:39.676Z,78.24
2022-12-31T16:59:47.973Z,77.92
2022-12-31T17:03:06.817Z,77.99
2022-12-31T17:09:16.684Z,77.95
2022-12-31T17:12:19.292Z,77.90
2022-12-31T17:15:09.247Z,78.33
2022-12-31T17:18:01.185Z,78.11
2022-12-31T17:20:59.973Z,77.93
2022-12-31T17:24:11.710Z,77.70
2022-12-31T17:27:42.188Z,77.78
2022-12-31T17:30:46.878Z,78.13
2022-12-31T17:34:00.976Z,77.74
2022-12-31T17:37:06.668Z,77.66
2022-12-31T17:40:50.442Z,77.67
2022-12-31T17:44:13.109Z,77.57
2022-12-31T17:54:56.046Z,77.74
2022-12-31T17:59:34.383Z,77.27
2022-12-31T18:01:50.878Z,77.50
2022-12-31T18:04:52.249Z,77.97
2022-12-31T18:13:03.467Z,77.80
2022-12-31T18:24:47.209Z,77.48
2022-12-31T18:28:25.766Z,77.41
2022-12-31T18:36:07.614Z,77.67
2022-12-31T18:40:25.514Z,77.65
2022-12-31T18:43:43.061Z,77.76
2022-12-31T18:54:14.627Z,77.90
2022-12-31T19:01:38.108Z,77.49
2022-12-31T19:05:07.162Z,77.81
2022-12-31T19:15:20.319Z,77.56
2022-12-31T19:30:12.544Z,77.52
2022-12-31T19:32:05.447Z,77.87
2022-12-31T19:39:04.635Z,77.56
2022-12-31T19:53:47.294Z,77.84
2022-12-31T19:57:04.112Z,77.49
2022-12-31T20:00:34.990Z,77.70
2022-12-31T20:03:40.616Z,77.93
2022-12-31T20:18:42.751Z,78.13
2022-12-31T20:29:15.521Z,77.23
2022-12-31T20:36:19.768Z,77.83
2022-12-31T20:56:18.680Z,77.31
2022-12-31T21:04:18.708Z,77.89
2022-12-31T21:07:44.160Z,77.98
2022-12-31T21:11:16.910Z,77.94
2022-12-31T21:14:23.353Z,77.45
2022-12-31T21:17:47.515Z,77.09
2022-12-31T22:05:53.277Z,77.93
2022-12-31T22:30:28.531Z,77.93
2022-12-31T22:36:53.729Z,77.98
2022-12-31T22:40:09.002Z,78.16
2022-12-31T22:46:57.320Z,77.66
2022-12-31T22:49:55.113Z,77.84
2022-12-31T22:56:24.431Z,78.75
2022-12-31T22:59:30.702Z,78.16
2022-12-31T23:02:41.901Z,78.44
2022-12-31T23:05:30.867Z,77.92
2022-12-31T23:08:23.089Z,78.55
2022-12-31T23:11:15.410Z,78.55
2022-12-31T23:14:52.290Z,77.84
2022-12-31T23:18:14.217Z,78.06
2022-12-31T23:22:22.507Z,77.62
2022-12-31T23:25:22.560Z,77.61
2022-12-31T23:28:58.934Z,78.00
2022-12-31T23:36:08.136Z,76.96
2022-12-31T23:38:59.032Z,77.20
2022-12-31T23:45:54.756Z,77.59
2022-12-31T23:48:51.324Z,77.18
2022-12-31T23:59:54.481Z,77.72
